FRS123 EDOP-EDDV

Flight info

Callsign FRS123
Flight time N/A
Altitude 2000
Route DCT EDDV/N1
Aircraft EC45/L-SDGY/S

Departure

Time N/A
Airport EDOP

Arrival

Time 2026-05-04 13:21
Airport Hannover Airport (EDDV)
Time Latitude Longitude Altitude Speed Heading
2026-05-04 12:05 53.43097 11.78493 155 ft 0 kts 187°
2026-05-04 12:14 53.43098 11.78491 157 ft 0 kts 146°
2026-05-04 12:17 53.43097 11.78493 158 ft 1 kts 159°
2026-05-04 12:18 53.43074 11.78495 163 ft 10 kts 165°
2026-05-04 12:18 53.42939 11.78533 181 ft 28 kts 163°
2026-05-04 12:18 53.42826 11.78826 209 ft 40 kts 54°
2026-05-04 12:18 53.43019 11.79420 199 ft 74 kts 61°
2026-05-04 12:19 53.43120 11.80280 367 ft 70 kts 159°
2026-05-04 12:19 53.42820 11.80415 516 ft 58 kts 243°
2026-05-04 12:19 53.42454 11.79631 366 ft 105 kts 239°
2026-05-04 12:19 53.42052 11.78620 426 ft 104 kts 239°
2026-05-04 12:20 53.41638 11.77631 499 ft 104 kts 238°
2026-05-04 12:20 53.41202 11.76645 582 ft 103 kts 236°
2026-05-04 12:20 53.40764 11.75735 654 ft 101 kts 236°
2026-05-04 12:20 53.40287 11.74873 660 ft 100 kts 232°
2026-05-04 12:21 53.39814 11.74041 796 ft 100 kts 233°
2026-05-04 12:21 53.39329 11.73207 869 ft 100 kts 232°
2026-05-04 12:21 53.38847 11.72394 977 ft 99 kts 230°
2026-05-04 12:21 53.38358 11.71583 1086 ft 101 kts 230°
2026-05-04 12:22 53.37852 11.70751 1181 ft 104 kts 229°
2026-05-04 12:22 53.37340 11.69921 1304 ft 102 kts 230°
2026-05-04 12:22 53.36831 11.69100 1425 ft 102 kts 229°
2026-05-04 12:22 53.36305 11.68256 1459 ft 105 kts 225°
2026-05-04 12:23 53.35768 11.67414 1346 ft 104 kts 228°
2026-05-04 12:23 53.35251 11.66594 1443 ft 101 kts 226°
2026-05-04 12:23 53.34745 11.65792 1452 ft 101 kts 229°
2026-05-04 12:23 53.34230 11.64979 1457 ft 103 kts 227°
2026-05-04 12:24 53.33705 11.64159 1456 ft 102 kts 227°
2026-05-04 12:24 53.33182 11.63344 1457 ft 102 kts 227°
2026-05-04 12:24 53.32666 11.62539 1451 ft 102 kts 227°
2026-05-04 12:24 53.32144 11.61721 1456 ft 102 kts 226°
2026-05-04 12:25 53.31634 11.60933 1451 ft 99 kts 227°
2026-05-04 12:25 53.31127 11.60144 1451 ft 100 kts 230°
2026-05-04 12:25 53.30625 11.59358 1449 ft 99 kts 230°
2026-05-04 12:25 53.30122 11.58570 1452 ft 99 kts 229°
2026-05-04 12:26 53.29623 11.57792 1450 ft 100 kts 227°
2026-05-04 12:26 53.29108 11.56990 1457 ft 100 kts 228°
2026-05-04 12:26 53.28595 11.56191 1456 ft 101 kts 230°
2026-05-04 12:26 53.28085 11.55395 1456 ft 100 kts 228°
2026-05-04 12:27 53.27575 11.54602 1456 ft 99 kts 230°
2026-05-04 12:27 53.27085 11.53835 1449 ft 100 kts 230°
2026-05-04 12:27 53.26580 11.53042 1452 ft 105 kts 230°
2026-05-04 12:27 53.26025 11.52163 1457 ft 111 kts 226°
2026-05-04 12:28 53.25465 11.51288 1453 ft 111 kts 227°
2026-05-04 12:28 53.24897 11.50400 1462 ft 112 kts 227°
2026-05-04 12:28 53.24332 11.49531 1463 ft 109 kts 227°
2026-05-04 12:28 53.23777 11.48673 1448 ft 110 kts 228°
2026-05-04 12:29 53.23213 11.47796 1450 ft 111 kts 227°
2026-05-04 12:29 53.22649 11.46921 1447 ft 112 kts 227°
2026-05-04 12:29 53.22077 11.46028 1450 ft 112 kts 227°
2026-05-04 12:29 53.21509 11.45149 1455 ft 111 kts 229°
2026-05-04 12:30 53.20954 11.44285 1460 ft 110 kts 226°
2026-05-04 12:30 53.20393 11.43413 1458 ft 111 kts 227°
2026-05-04 12:30 53.19824 11.42521 1457 ft 113 kts 228°
2026-05-04 12:30 53.19250 11.41626 1466 ft 112 kts 227°
2026-05-04 12:31 53.18683 11.40751 1455 ft 110 kts 226°
2026-05-04 12:31 53.18120 11.39876 1452 ft 111 kts 227°
2026-05-04 12:31 53.17556 11.39005 1454 ft 110 kts 227°
2026-05-04 12:31 53.17000 11.38146 1463 ft 106 kts 228°
2026-05-04 12:32 53.16480 11.37337 1453 ft 104 kts 229°
2026-05-04 12:32 53.15426 11.35691 1458 ft 106 kts 229°
2026-05-04 12:32 53.14878 11.34842 1463 ft 106 kts 229°
2026-05-04 12:33 53.14332 11.33997 1460 ft 107 kts 230°
2026-05-04 12:33 53.13792 11.33165 1466 ft 105 kts 229°
2026-05-04 12:33 53.13265 11.32357 1457 ft 102 kts 231°
2026-05-04 12:33 53.12741 11.31543 1459 ft 106 kts 229°
2026-05-04 12:34 53.12192 11.30693 1454 ft 109 kts 227°
2026-05-04 12:34 53.11643 11.29842 1456 ft 108 kts 227°
2026-05-04 12:34 53.11106 11.29030 1458 ft 102 kts 228°
2026-05-04 12:34 53.10561 11.28190 1462 ft 109 kts 225°
2026-05-04 12:35 53.10003 11.27331 1456 ft 110 kts 227°
2026-05-04 12:35 53.09440 11.26459 1460 ft 112 kts 225°
2026-05-04 12:35 53.08888 11.25619 1453 ft 104 kts 229°
2026-05-04 12:35 53.08351 11.24789 1459 ft 107 kts 229°
2026-05-04 12:36 53.07800 11.23936 1453 ft 109 kts 227°
2026-05-04 12:36 53.07251 11.23088 1457 ft 110 kts 228°
2026-05-04 12:36 53.06687 11.22212 1459 ft 112 kts 227°
2026-05-04 12:36 53.06125 11.21356 1453 ft 107 kts 228°
2026-05-04 12:37 53.05583 11.20526 1457 ft 106 kts 230°
2026-05-04 12:37 53.05030 11.19669 1459 ft 109 kts 228°
2026-05-04 12:37 53.04486 11.18838 1453 ft 105 kts 230°
2026-05-04 12:37 53.03950 11.18013 1456 ft 107 kts 228°
2026-05-04 12:38 53.03406 11.17186 1461 ft 103 kts 229°
2026-05-04 12:38 53.02886 11.16390 1455 ft 103 kts 230°
2026-05-04 12:38 53.02359 11.15575 1457 ft 105 kts 228°
2026-05-04 12:38 53.01846 11.14742 1456 ft 102 kts 236°
2026-05-04 12:39 53.01480 11.13748 1459 ft 103 kts 246°
2026-05-04 12:39 53.01145 11.12718 1462 ft 100 kts 246°
2026-05-04 12:39 53.00818 11.11681 1456 ft 103 kts 246°
2026-05-04 12:39 53.00486 11.10634 1460 ft 100 kts 248°
2026-05-04 12:40 53.00160 11.09607 1457 ft 102 kts 246°
2026-05-04 12:40 52.99834 11.08573 1453 ft 101 kts 248°
2026-05-04 12:40 52.99506 11.07522 1458 ft 104 kts 247°
2026-05-04 12:40 52.99172 11.06448 1454 ft 106 kts 246°
2026-05-04 12:41 52.98835 11.05368 1450 ft 108 kts 246°
2026-05-04 12:41 52.98507 11.04314 1448 ft 107 kts 246°
2026-05-04 12:41 52.98158 11.03191 1458 ft 112 kts 246°
2026-05-04 12:41 52.97806 11.02086 1460 ft 102 kts 245°
2026-05-04 12:42 52.97472 11.01031 1454 ft 106 kts 248°
2026-05-04 12:42 52.97130 10.99942 1460 ft 103 kts 246°
2026-05-04 12:42 52.96798 10.98887 1447 ft 109 kts 245°
2026-05-04 12:42 52.96440 10.97734 1459 ft 111 kts 244°
2026-05-04 12:43 52.96089 10.96614 1457 ft 109 kts 243°
2026-05-04 12:43 52.95743 10.95518 1466 ft 107 kts 244°
2026-05-04 12:43 52.95402 10.94440 1444 ft 110 kts 246°
2026-05-04 12:43 52.95056 10.93341 1449 ft 108 kts 243°
2026-05-04 12:44 52.94716 10.92275 1462 ft 107 kts 245°
2026-05-04 12:44 52.94374 10.91205 1458 ft 98 kts 245°
2026-05-04 12:44 52.94062 10.90228 1452 ft 99 kts 248°
2026-05-04 12:44 52.93734 10.89181 1459 ft 102 kts 245°
2026-05-04 12:45 52.93409 10.88156 1453 ft 101 kts 248°
2026-05-04 12:45 52.93082 10.87114 1450 ft 102 kts 247°
2026-05-04 12:45 52.92758 10.86079 1463 ft 103 kts 248°
2026-05-04 12:45 52.92425 10.85020 1444 ft 109 kts 246°
2026-05-04 12:46 52.92081 10.83925 1501 ft 98 kts 245°
2026-05-04 12:46 52.91770 10.82960 1458 ft 98 kts 250°
2026-05-04 12:46 52.91447 10.81925 1467 ft 100 kts 246°
2026-05-04 12:46 52.91130 10.80928 1462 ft 98 kts 247°
2026-05-04 12:47 52.90813 10.79915 1449 ft 99 kts 248°
2026-05-04 12:47 52.90497 10.78911 1468 ft 98 kts 246°
2026-05-04 12:47 52.90165 10.77922 1454 ft 101 kts 245°
2026-05-04 12:47 52.89817 10.76870 1459 ft 104 kts 243°
2026-05-04 12:48 52.89476 10.75861 1452 ft 103 kts 245°
2026-05-04 12:48 52.89118 10.74804 1456 ft 103 kts 243°
2026-05-04 12:48 52.88761 10.73786 1446 ft 102 kts 242°
2026-05-04 12:48 52.88395 10.72744 1458 ft 105 kts 242°
2026-05-04 12:49 52.88031 10.71745 1460 ft 99 kts 241°
2026-05-04 12:49 52.87661 10.70754 1459 ft 105 kts 242°
2026-05-04 12:49 52.87284 10.69748 1461 ft 103 kts 238°
2026-05-04 12:49 52.86897 10.68766 1461 ft 101 kts 238°
2026-05-04 12:50 52.86500 10.67785 1456 ft 104 kts 239°
2026-05-04 12:50 52.86093 10.66815 1459 ft 102 kts 237°
2026-05-04 12:50 52.85678 10.65849 1655 ft 102 kts 238°
2026-05-04 12:50 52.85302 10.64952 1885 ft 88 kts 239°
2026-05-04 12:51 52.84945 10.64098 1977 ft 93 kts 239°
2026-05-04 12:51 52.84578 10.63215 2023 ft 93 kts 238°
2026-05-04 12:51 52.84195 10.62359 2037 ft 93 kts 236°
2026-05-04 12:51 52.83837 10.61467 2045 ft 93 kts 242°
2026-05-04 12:52 52.83507 10.60562 2052 ft 93 kts 242°
2026-05-04 12:52 52.83172 10.59656 2052 ft 91 kts 242°
2026-05-04 12:52 52.82835 10.58760 2049 ft 94 kts 243°
2026-05-04 12:52 52.82487 10.57836 2062 ft 93 kts 242°
2026-05-04 12:53 52.82152 10.56947 2053 ft 90 kts 242°
2026-05-04 12:53 52.81824 10.56057 2051 ft 92 kts 242°
2026-05-04 12:53 52.81498 10.55159 2059 ft 90 kts 243°
2026-05-04 12:53 52.81190 10.54244 2053 ft 92 kts 244°
2026-05-04 12:54 52.80883 10.53312 2053 ft 92 kts 244°
2026-05-04 12:54 52.80587 10.52420 2059 ft 93 kts 244°
2026-05-04 12:54 52.80277 10.51492 2053 ft 92 kts 244°
2026-05-04 12:54 52.79955 10.50579 2026 ft 92 kts 242°
2026-05-04 12:55 52.79615 10.49680 2010 ft 92 kts 242°
2026-05-04 12:55 52.79273 10.48830 2008 ft 92 kts 239°
2026-05-04 12:55 52.78900 10.47969 1967 ft 93 kts 228°
2026-05-04 12:55 52.78490 10.47118 1990 ft 96 kts 229°
2026-05-04 12:56 52.78103 10.46203 2000 ft 98 kts 236°
2026-05-04 12:56 52.77802 10.45204 2028 ft 97 kts 247°
2026-05-04 12:56 52.77586 10.44170 2122 ft 96 kts 254°
2026-05-04 12:56 52.77389 10.43127 2251 ft 94 kts 256°
2026-05-04 12:57 52.77208 10.42113 2308 ft 90 kts 258°
2026-05-04 12:57 52.77023 10.41155 2343 ft 86 kts 253°
2026-05-04 12:57 52.76797 10.40210 2342 ft 90 kts 252°
2026-05-04 12:57 52.76567 10.39244 2329 ft 90 kts 252°
2026-05-04 12:58 52.76342 10.38303 2318 ft 88 kts 252°
2026-05-04 12:58 52.76114 10.37333 2318 ft 95 kts 252°
2026-05-04 12:58 52.75876 10.36333 2315 ft 92 kts 252°
2026-05-04 12:58 52.75653 10.35363 2304 ft 92 kts 253°
2026-05-04 12:59 52.75439 10.34355 2318 ft 93 kts 253°
2026-05-04 12:59 52.75225 10.33351 2324 ft 93 kts 253°
2026-05-04 12:59 52.75003 10.32341 2316 ft 94 kts 253°
2026-05-04 12:59 52.74770 10.31338 2330 ft 93 kts 249°
2026-05-04 13:00 52.74509 10.30338 2325 ft 97 kts 249°
2026-05-04 13:00 52.74239 10.29334 2335 ft 93 kts 249°
2026-05-04 13:00 52.73985 10.28369 2324 ft 94 kts 249°
2026-05-04 13:00 52.73731 10.27377 2332 ft 93 kts 249°
2026-05-04 13:01 52.73476 10.26385 2334 ft 96 kts 248°
2026-05-04 13:01 52.73231 10.25371 2334 ft 94 kts 250°
2026-05-04 13:01 52.72976 10.24393 2328 ft 93 kts 250°
2026-05-04 13:01 52.72723 10.23386 2334 ft 95 kts 249°
2026-05-04 13:02 52.72479 10.22385 2330 ft 94 kts 250°
2026-05-04 13:02 52.72222 10.21393 2334 ft 93 kts 248°
2026-05-04 13:02 52.71982 10.20451 2324 ft 93 kts 250°
2026-05-04 13:02 52.71810 10.19801 2329 ft 93 kts 248°
2026-05-04 13:03 52.71428 10.18572 2325 ft 93 kts 241°
2026-05-04 13:03 52.71059 10.17663 2337 ft 96 kts 239°
2026-05-04 13:03 52.70696 10.16786 2339 ft 92 kts 239°
2026-05-04 13:03 52.70340 10.15925 2346 ft 94 kts 240°
2026-05-04 13:04 52.69962 10.15034 2365 ft 94 kts 239°
2026-05-04 13:04 52.69594 10.14182 2366 ft 95 kts 238°
2026-05-04 13:04 52.69346 10.13596 2368 ft 94 kts 240°
2026-05-04 13:04 52.68961 10.12735 2370 ft 93 kts 239°
2026-05-04 13:05 52.68586 10.11861 2367 ft 94 kts 239°
2026-05-04 13:05 52.67875 10.11014 2371 ft 101 kts 202°
2026-05-04 13:05 52.67234 10.10573 2375 ft 98 kts 210°
2026-05-04 13:05 52.66619 10.10077 2372 ft 98 kts 211°
2026-05-04 13:06 52.66204 10.09743 2372 ft 99 kts 211°
2026-05-04 13:06 52.65596 10.09251 2376 ft 99 kts 211°
2026-05-04 13:06 52.64984 10.08756 2371 ft 99 kts 211°
2026-05-04 13:06 52.64355 10.08232 2371 ft 102 kts 211°
2026-05-04 13:07 52.63738 10.07710 2374 ft 97 kts 211°
2026-05-04 13:07 52.63129 10.07215 2366 ft 99 kts 211°
2026-05-04 13:07 52.62516 10.06698 2377 ft 98 kts 211°
2026-05-04 13:07 52.61910 10.06188 2377 ft 96 kts 211°
2026-05-04 13:08 52.61313 10.05685 2370 ft 97 kts 212°
2026-05-04 13:08 52.60707 10.05178 2377 ft 99 kts 211°
2026-05-04 13:08 52.60098 10.04686 2373 ft 96 kts 211°
2026-05-04 13:08 52.59498 10.04183 2375 ft 97 kts 212°
2026-05-04 13:09 52.58889 10.03684 2380 ft 97 kts 210°
2026-05-04 13:09 52.58279 10.03205 2366 ft 99 kts 206°
2026-05-04 13:09 52.57571 10.03163 2369 ft 105 kts 175°
2026-05-04 13:09 52.56854 10.03375 2373 ft 104 kts 173°
2026-05-04 13:10 52.56143 10.03601 2379 ft 104 kts 171°
2026-05-04 13:10 52.55443 10.03818 2375 ft 104 kts 172°
2026-05-04 13:10 52.54725 10.04076 2372 ft 107 kts 172°
2026-05-04 13:10 52.54002 10.04368 2370 ft 106 kts 172°
2026-05-04 13:11 52.53280 10.04666 2366 ft 107 kts 171°
2026-05-04 13:11 52.52558 10.04907 2367 ft 105 kts 183°
2026-05-04 13:11 52.51834 10.04893 2372 ft 102 kts 188°
2026-05-04 13:11 52.51125 10.04803 2371 ft 102 kts 189°
2026-05-04 13:12 52.50409 10.04710 2373 ft 103 kts 189°
2026-05-04 13:12 52.49682 10.04632 2373 ft 106 kts 189°
2026-05-04 13:12 52.48967 10.04580 2375 ft 104 kts 189°
2026-05-04 13:12 52.48237 10.04590 2372 ft 105 kts 182°
2026-05-04 13:13 52.47523 10.04451 2369 ft 100 kts 206°
2026-05-04 13:13 52.46904 10.03970 2368 ft 98 kts 214°
2026-05-04 13:13 52.46313 10.03412 2368 ft 98 kts 224°
2026-05-04 13:13 52.46011 10.02448 2368 ft 95 kts 257°
2026-05-04 13:14 52.45865 10.01398 2371 ft 95 kts 260°
2026-05-04 13:14 52.45748 10.00371 2374 ft 89 kts 270°
2026-05-04 13:14 52.45793 9.99379 2373 ft 88 kts 277°
2026-05-04 13:14 52.45851 9.98389 2378 ft 87 kts 275°
2026-05-04 13:15 52.45907 9.97295 2358 ft 101 kts 275°
2026-05-04 13:15 52.45954 9.96143 2371 ft 101 kts 274°
2026-05-04 13:15 52.45987 9.94994 2372 ft 100 kts 273°
2026-05-04 13:15 52.46022 9.93851 2368 ft 101 kts 274°
2026-05-04 13:16 52.46057 9.92700 2367 ft 102 kts 274°
2026-05-04 13:16 52.46091 9.91527 2374 ft 103 kts 274°
2026-05-04 13:16 52.46116 9.90430 2379 ft 100 kts 273°
2026-05-04 13:16 52.46150 9.89283 2366 ft 102 kts 274°
2026-05-04 13:17 52.46186 9.88116 2370 ft 103 kts 272°
2026-05-04 13:17 52.46215 9.86941 2259 ft 104 kts 273°
2026-05-04 13:17 52.46246 9.85749 2119 ft 104 kts 274°
2026-05-04 13:17 52.46277 9.84560 1980 ft 106 kts 274°
2026-05-04 13:18 52.46310 9.83348 1827 ft 106 kts 274°
2026-05-04 13:18 52.46345 9.82156 1686 ft 103 kts 275°
2026-05-04 13:18 52.46378 9.80984 1530 ft 102 kts 274°
2026-05-04 13:18 52.46414 9.79823 1395 ft 107 kts 274°
2026-05-04 13:19 52.46446 9.78609 1246 ft 105 kts 274°
2026-05-04 13:19 52.46479 9.77406 1106 ft 105 kts 275°
2026-05-04 13:19 52.46511 9.76218 959 ft 106 kts 275°
2026-05-04 13:19 52.46547 9.75017 823 ft 104 kts 274°
2026-05-04 13:20 52.46576 9.73868 682 ft 93 kts 276°
2026-05-04 13:20 52.46601 9.72924 573 ft 73 kts 277°
2026-05-04 13:20 52.46623 9.72191 479 ft 57 kts 281°
2026-05-04 13:20 52.46645 9.71540 408 ft 58 kts 279°
2026-05-04 13:21 52.46664 9.70882 336 ft 60 kts 276°
2026-05-04 13:21 52.46675 9.70291 250 ft 39 kts 251°
2026-05-04 13:21 52.46612 9.70062 201 ft 13 kts 228°
2026-05-04 13:21 52.46544 9.69967 199 ft 25 kts 231°
2026-05-04 13:22 52.46465 9.69663 180 ft 25 kts 231°
2026-05-04 13:22 52.46430 9.69498 181 ft 7 kts 218°
2026-05-04 13:22 52.46408 9.69393 189 ft 19 kts 229°
2026-05-04 13:22 52.46364 9.69241 180 ft 9 kts 227°
2026-05-04 13:23 52.46323 9.69174 180 ft 8 kts 228°
2026-05-04 13:23 52.46292 9.69155 179 ft 1 kts 182°
2026-05-04 13:23 52.46290 9.69149 174 ft 0 kts 154°